Time;durP1;ratioP1;P1;durP2;ratioP2;P2;SDS_P1;SDS_P2;PMS_P1;PMS_P2;Temp;Humidity;BMP_temperature;BMP_pressure;BME280_temperature;BME280_humidity;BME280_pressure;Samples;Min_cycle;Max_cycle;Signal;HPM_P1;HPM_P2
2023/06/16 00:05:01;;;;;;;5.43;4.80;;;14.40;63.80;;;;;;5066501;28;20231;-88
2023/06/16 00:10:12;;;;;;;6.45;4.90;;;14.20;66.20;;;;;;5065209;28;20261;-89
2023/06/16 00:16:02;;;;;;;8.20;4.88;;;14.10;67.30;;;;;;4971760;28;20255;-88
2023/06/16 00:39:44;;;;;;;7.15;5.30;;;13.90;75.50;;;;;;4975544;28;20572;-90
2023/06/16 00:44:54;;;;;;;6.78;5.70;;;13.80;75.20;;;;;;5026874;28;20229;-89
2023/06/16 01:16:12;;;;;;;9.15;5.95;;;13.40;80.00;;;;;;5044290;28;20247;-90
2023/06/16 01:53:57;;;;;;;6.53;5.93;;;12.90;85.10;;;;;;5042947;28;20370;-89
2023/06/16 01:56:25;;;;;;;6.78;5.68;;;12.80;85.50;;;;;;5017778;28;20208;-91
2023/06/16 02:02:00;;;;;;;8.18;5.75;;;12.70;85.60;;;;;;5042229;28;20198;-90
2023/06/16 02:07:25;;;;;;;6.80;6.10;;;12.60;86.20;;;;;;5041649;28;20225;-90
2023/06/16 02:18:27;;;;;;;6.95;6.18;;;12.70;88.30;;;;;;5019766;28;20230;-91
2023/06/16 02:21:12;;;;;;;7.43;5.85;;;12.70;88.60;;;;;;5013279;28;20290;-90
2023/06/16 02:23:39;;;;;;;6.00;5.40;;;12.70;87.20;;;;;;5044254;28;20207;-88
2023/06/16 02:34:58;;;;;;;5.90;5.30;;;13.10;84.70;;;;;;5047154;28;20248;-90
2023/06/16 02:37:27;;;;;;;5.47;4.97;;;13.30;82.30;;;;;;5044551;28;20729;-90
2023/06/16 02:39:54;;;;;;;6.80;5.20;;;13.30;80.20;;;;;;5047800;28;21451;-91
2023/06/16 02:42:21;;;;;;;6.00;5.40;;;13.20;80.30;;;;;;5047048;28;20205;-90
2023/06/16 02:55:35;;;;;;;7.15;5.22;;;13.10;82.10;;;;;;5038023;28;20229;-90
2023/06/16 03:00:44;;;;;;;9.02;5.93;;;13.20;82.10;;;;;;5033813;28;20245;-90
2023/06/16 03:05:59;;;;;;;6.40;5.60;;;13.10;82.10;;;;;;5018971;28;20229;-91
2023/06/16 03:08:27;;;;;;;6.28;5.65;;;13.20;81.30;;;;;;5016077;28;20292;-90
2023/06/16 03:27:48;;;;;;;6.10;5.25;;;13.60;76.60;;;;;;5009392;28;20227;-90
2023/06/16 03:30:17;;;;;;;7.40;5.25;;;13.60;77.40;;;;;;5007994;28;20195;-88
2023/06/16 03:33:35;;;;;;;6.57;5.40;;;13.60;77.80;;;;;;5079445;28;20649;-88
2023/06/16 03:42:13;;;;;;;5.60;5.03;;;13.50;76.20;;;;;;5006386;28;20200;-90
2023/06/16 03:56:36;;;;;;;6.70;5.30;;;13.60;76.30;;;;;;4967832;28;20209;-90
2023/06/16 03:59:03;;;;;;;7.97;5.45;;;13.60;76.30;;;;;;4973136;28;20196;-90
2023/06/16 04:02:26;;;;;;;10.05;5.55;;;13.60;76.30;;;;;;4988420;28;20198;-88
2023/06/16 04:04:55;;;;;;;7.85;5.60;;;13.70;76.40;;;;;;5032803;28;20264;-90
2023/06/16 04:16:19;;;;;;;5.85;5.28;;;13.90;76.50;;;;;;5051296;28;20209;-89
2023/06/16 04:27:23;;;;;;;6.30;5.55;;;14.20;76.70;;;;;;4973127;28;20641;-92
2023/06/16 04:39:48;;;;;;;8.52;5.85;;;14.60;73.40;;;;;;4881158;29;20697;-92
2023/06/16 04:42:16;;;;;;;9.27;5.82;;;14.80;73.50;;;;;;4931897;28;20705;-92
2023/06/16 04:44:43;;;;;;;8.25;5.55;;;14.90;72.40;;;;;;5016726;28;20568;-90
2023/06/16 04:47:12;;;;;;;7.75;6.05;;;15.10;71.60;;;;;;5032018;28;20603;-90
2023/06/16 04:52:45;;;;;;;9.52;5.60;;;15.40;67.70;;;;;;5031848;28;20206;-89
2023/06/16 04:55:14;;;;;;;6.97;5.82;;;15.50;68.30;;;;;;5043059;28;20570;-91
2023/06/16 04:57:42;;;;;;;8.23;5.88;;;15.60;67.60;;;;;;5058951;28;20265;-90
2023/06/16 05:02:51;;;;;;;9.10;6.05;;;15.90;66.10;;;;;;5056303;28;20245;-87
2023/06/16 05:06:11;;;;;;;8.38;6.05;;;16.00;62.60;;;;;;5055938;28;20216;-86
2023/06/16 05:08:39;;;;;;;5.97;5.38;;;16.00;63.30;;;;;;5051995;28;20194;-85
2023/06/16 05:30:41;;;;;;;8.38;5.35;;;16.80;53.70;;;;;;5038285;28;20179;-85
2023/06/16 05:33:38;;;;;;;7.47;6.05;;;17.20;49.90;;;;;;5021245;28;20210;-89
2023/06/16 05:36:05;;;;;;;9.15;6.40;;;17.30;48.00;;;;;;5019295;28;20199;-86
2023/06/16 05:38:33;;;;;;;7.75;6.88;;;17.40;46.80;;;;;;5025186;28;20820;-89
2023/06/16 05:41:01;;;;;;;7.03;5.57;;;17.50;47.20;;;;;;5034491;28;20669;-87
2023/06/16 05:43:28;;;;;;;6.95;6.00;;;17.70;46.00;;;;;;5017170;28;20204;-88
2023/06/16 05:49:57;;;;;;;8.55;5.90;;;18.20;39.30;;;;;;5037177;28;20674;-86
2023/06/16 05:52:24;;;;;;;11.63;5.43;;;18.10;39.70;;;;;;5003432;28;20207;-87
2023/06/16 05:54:50;;;;;;;5.45;4.95;;;17.90;41.20;;;;;;5018132;28;20620;-84
2023/06/16 05:57:43;;;;;;;8.55;5.80;;;17.80;41.80;;;;;;5017550;28;20186;-86
2023/06/16 06:00:11;;;;;;;6.95;6.20;;;17.90;41.60;;;;;;5026814;28;20782;-88
2023/06/16 06:02:38;;;;;;;10.50;5.72;;;17.80;41.80;;;;;;5024151;28;20588;-86
2023/06/16 06:05:07;;;;;;;11.57;6.18;;;17.70;43.90;;;;;;4982402;28;20214;-89
2023/06/16 06:11:36;;;;;;;7.72;5.43;;;17.50;45.70;;;;;;5024739;28;20262;-88
2023/06/16 06:16:56;;;;;;;11.00;6.30;;;17.40;46.30;;;;;;4971768;28;20208;-88
2023/06/16 06:32:22;;;;;;;9.75;5.45;;;17.90;40.60;;;;;;5309425;22;20239;-88
2023/06/16 06:38:22;;;;;;;7.80;5.40;;;17.90;41.90;;;;;;4997962;28;20175;-90
2023/06/16 06:40:49;;;;;;;7.72;5.78;;;17.90;41.90;;;;;;4995534;28;20208;-91
2023/06/16 06:43:16;;;;;;;10.02;5.35;;;17.80;41.80;;;;;;4978362;28;20295;-93
2023/06/16 06:45:45;;;;;;;8.52;5.45;;;17.90;41.50;;;;;;4995301;28;20205;-90
2023/06/16 06:48:13;;;;;;;8.73;5.90;;;18.10;38.30;;;;;;4976750;28;20215;-92
2023/06/16 06:50:40;;;;;;;7.63;5.43;;;18.30;36.20;;;;;;4976948;28;20208;-90
2023/06/16 06:53:07;;;;;;;5.95;5.35;;;18.30;36.30;;;;;;4997695;28;20861;-93
2023/06/16 06:55:33;;;;;;;9.18;5.70;;;18.50;35.40;;;;;;4961646;28;20674;-91
2023/06/16 06:58:01;;;;;;;11.18;5.47;;;18.60;35.80;;;;;;4971538;28;20239;-90
2023/06/16 07:00:27;;;;;;;8.10;5.38;;;18.70;35.10;;;;;;4977527;28;20664;-91
2023/06/16 07:02:54;;;;;;;8.13;5.15;;;18.90;31.10;;;;;;4992691;28;20200;-89
2023/06/16 07:05:23;;;;;;;7.82;5.20;;;19.00;30.50;;;;;;4990314;28;20256;-91
2023/06/16 07:07:50;;;;;;;8.43;4.78;;;19.20;31.40;;;;;;4997243;28;20218;-88
2023/06/16 07:10:17;;;;;;;9.23;5.05;;;19.50;31.70;;;;;;4995074;28;20740;-90
2023/06/16 07:12:44;;;;;;;7.70;4.93;;;20.30;27.60;;;;;;4977123;28;20204;-89
2023/06/16 07:15:11;;;;;;;6.43;4.35;;;20.90;23.80;;;;;;4991346;28;20207;-87
2023/06/16 07:17:38;;;;;;;13.10;5.28;;;21.30;22.70;;;;;;4993025;28;20683;-89
2023/06/16 07:20:06;;;;;;;14.82;5.75;;;21.40;22.90;;;;;;4975285;28;20211;-87
2023/06/16 07:22:34;;;;;;;8.82;5.68;;;21.40;20.40;;;;;;4991089;28;20204;-90
2023/06/16 07:25:01;;;;;;;7.55;5.07;;;21.30;21.90;;;;;;4988969;28;20649;-90
2023/06/16 07:27:28;;;;;;;6.82;4.70;;;20.90;23.70;;;;;;4990279;28;20243;-91
2023/06/16 07:29:55;;;;;;;6.68;5.13;;;20.80;22.80;;;;;;4971511;28;20243;-89
2023/06/16 07:32:22;;;;;;;8.45;5.20;;;20.90;22.40;;;;;;4994860;28;20215;-88
2023/06/16 07:35:02;;;;;;;6.25;4.55;;;20.80;22.40;;;;;;4995272;28;20212;-88
2023/06/16 07:37:29;;;;;;;5.40;4.55;;;20.70;21.90;;;;;;4981531;28;20283;-89
2023/06/16 07:39:57;;;;;;;7.00;5.28;;;20.70;22.80;;;;;;4995357;28;20203;-87
2023/06/16 07:42:24;;;;;;;8.90;4.80;;;20.70;22.20;;;;;;4984149;28;20246;-89
2023/06/16 07:45:07;;;;;;;7.63;4.55;;;20.80;21.90;;;;;;4988627;28;20635;-88
2023/06/16 07:47:34;;;;;;;10.30;4.50;;;20.90;21.90;;;;;;4991549;28;20683;-87
2023/06/16 07:50:00;;;;;;;8.98;4.85;;;20.90;21.90;;;;;;4984141;28;20291;-88
2023/06/16 07:52:27;;;;;;;6.43;4.60;;;21.00;20.60;;;;;;4967613;28;20207;-88
2023/06/16 07:54:55;;;;;;;5.22;4.15;;;21.00;20.60;;;;;;4996138;28;20192;-89
2023/06/16 07:58:01;;;;;;;8.02;4.57;;;21.10;19.70;;;;;;4984762;28;20193;-89
2023/06/16 08:14:13;;;;;;;6.05;4.20;;;22.30;17.50;;;;;;4981118;28;20177;-84
2023/06/16 08:48:44;;;;;;;5.63;4.60;;;28.90;5.10;;;;;;4952682;28;20600;-89
2023/06/16 08:51:23;;;;;;;5.47;4.10;;;28.70;5.30;;;;;;4957833;28;20224;-90
2023/06/16 08:53:57;;;;;;;4.75;4.00;;;29.00;5.00;;;;;;4955613;28;20200;-89
2023/06/16 08:56:26;;;;;;;5.38;4.88;;;28.80;5.30;;;;;;4951301;29;20315;-90
2023/06/16 08:58:57;;;;;;;4.88;4.22;;;28.90;4.70;;;;;;4961503;28;20680;-86
2023/06/16 09:01:26;;;;;;;4.78;4.35;;;29.50;4.20;;;;;;4955819;29;20292;-88
2023/06/16 09:30:02;;;;;;;4.72;4.30;;;25.30;9.00;;;;;;5374118;23;20248;-86
2023/06/16 09:32:43;;;;;;;5.65;4.13;;;24.90;11.70;;;;;;4963606;28;20201;-84
2023/06/16 09:35:20;;;;;;;7.53;4.50;;;24.60;11.20;;;;;;4971555;28;20208;-87
2023/06/16 09:37:56;;;;;;;5.85;4.22;;;25.00;11.10;;;;;;4980804;28;20524;-86
2023/06/16 09:40:43;;;;;;;8.60;4.47;;;25.10;12.30;;;;;;4966551;28;20212;-87
2023/06/16 09:43:11;;;;;;;7.53;4.50;;;24.70;10.60;;;;;;4972045;28;20204;-85
2023/06/16 09:45:40;;;;;;;7.63;4.60;;;24.20;12.40;;;;;;4965571;28;20636;-81
2023/06/16 09:48:09;;;;;;;5.78;4.63;;;23.80;13.60;;;;;;4971076;28;20227;-85
2023/06/16 09:50:37;;;;;;;7.30;4.30;;;23.40;13.20;;;;;;4979882;28;20531;-83
2023/06/16 10:00:19;;;;;;;8.98;4.55;;;26.70;8.80;;;;;;4959291;29;20236;-87
2023/06/16 10:03:27;;;;;;;8.63;4.43;;;26.40;7.80;;;;;;4959903;28;20208;-86
2023/06/16 10:05:55;;;;;;;8.13;4.57;;;25.80;9.40;;;;;;4975314;28;20188;-85
2023/06/16 10:08:22;;;;;;;4.60;4.20;;;25.40;10.10;;;;;;4978424;28;20213;-86
2023/06/16 10:10:53;;;;;;;6.13;4.47;;;25.80;8.50;;;;;;4975105;28;20200;-84
2023/06/16 10:13:22;;;;;;;8.27;4.80;;;25.40;7.80;;;;;;4967337;28;20224;-84
2023/06/16 10:15:50;;;;;;;8.23;4.40;;;25.00;8.50;;;;;;4961793;28;20236;-82
2023/06/16 11:00:11;;;;;;;8.30;4.78;;;28.90;3.20;;;;;;5013247;28;20281;-86
2023/06/16 11:02:38;;;;;;;9.18;4.78;;;29.00;3.00;;;;;;5012342;28;20286;-85
2023/06/16 11:05:12;;;;;;;6.82;4.80;;;28.90;2.40;;;;;;5017180;28;20199;-90
2023/06/16 11:07:40;;;;;;;6.38;4.70;;;28.20;3.00;;;;;;5008074;28;20642;-85
2023/06/16 11:10:09;;;;;;;8.35;4.80;;;28.00;6.00;;;;;;5008312;28;20206;-88
2023/06/16 11:12:36;;;;;;;7.65;4.47;;;27.50;3.30;;;;;;4978477;28;20218;-85
2023/06/16 11:15:06;;;;;;;6.80;4.47;;;27.20;3.00;;;;;;5005258;28;20666;-83
2023/06/16 11:17:33;;;;;;;5.82;4.40;;;26.70;3.60;;;;;;5006908;28;20749;-85
2023/06/16 11:20:05;;;;;;;5.35;4.10;;;25.90;5.00;;;;;;4986843;28;20556;-85
2023/06/16 11:22:33;;;;;;;13.00;4.30;;;25.10;5.90;;;;;;4968918;28;20207;-89
2023/06/16 11:25:01;;;;;;;6.18;4.47;;;24.60;6.40;;;;;;4997243;28;20212;-85
2023/06/16 11:27:29;;;;;;;6.90;4.80;;;24.20;7.30;;;;;;4987072;28;20216;-86
2023/06/16 11:29:56;;;;;;;5.00;4.50;;;24.00;6.00;;;;;;4988648;28;20200;-87
2023/06/16 11:32:26;;;;;;;5.60;4.50;;;24.10;6.30;;;;;;4988387;28;20207;-84
2023/06/16 11:34:55;;;;;;;9.27;4.45;;;24.30;5.30;;;;;;4992706;28;20200;-86
2023/06/16 11:37:22;;;;;;;6.38;4.47;;;24.40;5.40;;;;;;4988828;28;20222;-86
2023/06/16 11:39:49;;;;;;;8.32;4.43;;;24.70;4.90;;;;;;4985628;28;20195;-87
2023/06/16 11:42:17;;;;;;;6.28;4.43;;;25.10;5.60;;;;;;4977628;28;20657;-87
2023/06/16 11:44:44;;;;;;;8.10;4.28;;;25.50;6.50;;;;;;4972043;28;20263;-87
2023/06/16 11:47:12;;;;;;;7.13;6.20;;;25.60;6.10;;;;;;4972304;28;20710;-89
2023/06/16 11:49:41;;;;;;;10.23;4.63;;;25.80;5.60;;;;;;4969891;28;20204;-84
2023/06/16 11:52:08;;;;;;;10.48;5.05;;;25.80;5.40;;;;;;4989497;28;20208;-87
2023/06/16 11:54:36;;;;;;;9.30;4.45;;;25.80;6.50;;;;;;4982229;28;20202;-87
2023/06/16 11:57:03;;;;;;;11.85;4.35;;;26.00;5.10;;;;;;4967083;28;20795;-89
2023/06/16 11:59:32;;;;;;;12.65;4.95;;;26.10;6.10;;;;;;4988774;28;20207;-86
2023/06/16 12:02:01;;;;;;;6.65;5.03;;;26.20;3.70;;;;;;4992549;28;20200;-87
2023/06/16 12:04:29;;;;;;;6.13;4.38;;;26.40;4.80;;;;;;4994684;28;20203;-88
2023/06/16 12:06:58;;;;;;;6.97;5.55;;;26.50;3.80;;;;;;4969596;28;20316;-89
2023/06/16 12:09:37;;;;;;;11.20;5.05;;;26.50;3.90;;;;;;4988340;28;20612;-88
2023/06/16 12:12:04;;;;;;;8.77;4.50;;;26.10;5.10;;;;;;4988528;28;20941;-86
2023/06/16 12:14:35;;;;;;;9.18;4.10;;;25.80;3.80;;;;;;4982903;28;20814;-86
2023/06/16 12:17:02;;;;;;;4.70;4.30;;;25.50;4.80;;;;;;4975756;28;20207;-85
2023/06/16 12:19:29;;;;;;;8.00;4.65;;;25.50;4.90;;;;;;4965089;28;20602;-85
2023/06/16 12:22:01;;;;;;;5.95;4.97;;;25.80;5.70;;;;;;4946625;28;20201;-92
2023/06/16 12:24:29;;;;;;;7.00;4.57;;;26.00;5.00;;;;;;4949116;28;20189;-87
2023/06/16 12:26:56;;;;;;;7.60;4.80;;;26.20;5.80;;;;;;4955900;28;20668;-86
2023/06/16 12:29:27;;;;;;;5.22;4.25;;;26.00;4.90;;;;;;4957848;28;20220;-89
2023/06/16 12:31:56;;;;;;;11.25;4.85;;;26.10;4.80;;;;;;4948448;28;20224;-89
2023/06/16 12:34:24;;;;;;;8.07;4.35;;;25.90;6.00;;;;;;4947800;28;20197;-88
2023/06/16 12:36:52;;;;;;;7.22;4.50;;;25.50;5.60;;;;;;4943994;28;20202;-88
2023/06/16 12:39:21;;;;;;;7.22;4.57;;;25.10;6.60;;;;;;4951024;28;20575;-87
2023/06/16 12:41:58;;;;;;;8.93;4.60;;;24.90;7.60;;;;;;4947929;28;20268;-89
2023/06/16 12:44:40;;;;;;;8.85;4.30;;;25.20;8.60;;;;;;4948028;28;20197;-88
2023/06/16 12:47:08;;;;;;;10.88;4.60;;;25.50;7.20;;;;;;4954968;28;20205;-87
2023/06/16 12:49:36;;;;;;;8.45;4.70;;;25.90;7.30;;;;;;4937431;28;20206;-87
2023/06/16 12:52:03;;;;;;;5.72;4.20;;;26.00;4.60;;;;;;4954511;28;20310;-88
2023/06/16 12:54:32;;;;;;;5.85;4.20;;;26.10;4.90;;;;;;4954712;28;20198;-86
2023/06/16 12:57:00;;;;;;;9.40;4.07;;;26.40;4.00;;;;;;4936819;29;20237;-86
2023/06/16 12:59:41;;;;;;;6.10;4.30;;;26.40;4.50;;;;;;4944579;29;20209;-87
2023/06/16 13:02:08;;;;;;;11.45;4.57;;;26.50;5.80;;;;;;4925766;29;20206;-87
2023/06/16 13:05:08;;;;;;;8.77;4.20;;;26.30;4.50;;;;;;4944458;29;20717;-83
2023/06/16 13:07:35;;;;;;;8.02;4.50;;;25.60;4.60;;;;;;4956644;29;20224;-83
2023/06/16 13:10:03;;;;;;;8.10;4.40;;;25.40;5.60;;;;;;4947370;28;20791;-89
2023/06/16 13:12:30;;;;;;;6.47;4.38;;;25.50;5.50;;;;;;4948554;28;20207;-87
2023/06/16 13:14:57;;;;;;;9.50;4.43;;;25.40;5.00;;;;;;4955913;28;20227;-90
2023/06/16 13:17:24;;;;;;;9.63;4.57;;;25.20;5.70;;;;;;4948533;28;20222;-85
2023/06/16 13:19:51;;;;;;;5.35;4.13;;;24.60;5.80;;;;;;4951294;28;20193;-85
2023/06/16 13:22:18;;;;;;;8.65;4.88;;;24.30;6.30;;;;;;4953822;28;20204;-85
2023/06/16 13:24:45;;;;;;;6.90;4.72;;;24.10;5.10;;;;;;4956054;28;20603;-85
2023/06/16 13:27:13;;;;;;;6.05;4.18;;;24.10;4.80;;;;;;4948358;29;20398;-89
2023/06/16 13:29:40;;;;;;;8.57;4.43;;;24.10;5.50;;;;;;4956683;28;20200;-86
2023/06/16 13:32:08;;;;;;;7.03;4.57;;;24.40;6.40;;;;;;4949911;28;20208;-88
2023/06/16 13:34:34;;;;;;;6.50;4.90;;;24.80;5.90;;;;;;4943596;29;20217;-86
2023/06/16 13:37:02;;;;;;;10.70;4.57;;;25.00;4.60;;;;;;4929613;29;20208;-83
2023/06/16 13:39:28;;;;;;;7.07;4.50;;;25.30;4.30;;;;;;4952474;28;20296;-82
2023/06/16 13:41:55;;;;;;;6.50;4.50;;;25.40;4.80;;;;;;4954064;28;20207;-86
2023/06/16 13:44:24;;;;;;;9.95;4.70;;;25.30;4.20;;;;;;4967777;28;20217;-85
2023/06/16 13:46:51;;;;;;;6.10;4.78;;;24.80;6.00;;;;;;4979741;28;20193;-86
2023/06/16 13:49:20;;;;;;;10.15;5.47;;;24.50;5.20;;;;;;4959655;28;20284;-84
2023/06/16 13:51:47;;;;;;;6.78;4.43;;;24.30;6.10;;;;;;4943198;29;20208;-86
2023/06/16 13:54:14;;;;;;;8.73;6.68;;;24.20;5.00;;;;;;4926619;29;20209;-87
2023/06/16 14:07:01;;;;;;;5.50;4.78;;;23.90;5.80;;;;;;4965056;28;20208;-85
2023/06/16 14:09:28;;;;;;;10.27;4.90;;;23.80;5.70;;;;;;4931528;29;20218;-84
2023/06/16 14:11:55;;;;;;;7.50;4.93;;;23.90;5.90;;;;;;4947378;29;20208;-86
2023/06/16 14:14:22;;;;;;;5.45;4.90;;;24.20;6.10;;;;;;4948503;28;20224;-85
2023/06/16 14:16:49;;;;;;;7.15;4.97;;;24.50;4.70;;;;;;4943440;28;20208;-86
2023/06/16 14:19:17;;;;;;;10.45;5.53;;;24.50;5.80;;;;;;4952656;28;20225;-86
2023/06/16 14:21:44;;;;;;;8.35;5.40;;;24.50;6.20;;;;;;4948224;28;20213;-83
2023/06/16 14:24:12;;;;;;;5.93;4.90;;;24.40;6.20;;;;;;4952772;29;20204;-87
2023/06/16 14:26:39;;;;;;;7.80;5.72;;;24.30;6.20;;;;;;4954813;29;20228;-83
2023/06/16 14:29:06;;;;;;;8.68;5.03;;;24.30;6.50;;;;;;4938201;28;20236;-86
2023/06/16 14:31:33;;;;;;;7.55;5.22;;;24.60;6.10;;;;;;4941301;28;20654;-85
2023/06/16 14:33:59;;;;;;;8.32;5.35;;;24.90;6.10;;;;;;4962997;28;20208;-86
2023/06/16 14:36:27;;;;;;;8.35;4.88;;;24.70;6.60;;;;;;4944089;28;20253;-87
2023/06/16 14:38:54;;;;;;;9.30;4.38;;;24.60;5.80;;;;;;4945031;28;20232;-88
2023/06/16 14:41:23;;;;;;;28.45;23.80;;;24.70;5.50;;;;;;4933162;29;20217;-89
2023/06/16 14:43:50;;;;;;;7.55;5.45;;;24.90;5.20;;;;;;4956748;28;20201;-82
2023/06/16 14:46:17;;;;;;;8.23;4.63;;;24.90;5.50;;;;;;4950853;28;20202;-85
2023/06/16 14:48:44;;;;;;;10.15;6.55;;;25.10;4.70;;;;;;4932428;29;20214;-87
2023/06/16 15:15:17;;;;;;;6.80;4.22;;;24.20;6.30;;;;;;4954321;28;20202;-89
2023/06/16 15:18:38;;;;;;;6.53;4.43;;;24.10;7.20;;;;;;4968062;23;20248;-88
2023/06/16 15:21:05;;;;;;;6.97;4.03;;;24.30;7.40;;;;;;4968456;28;20299;-86
2023/06/16 15:23:32;;;;;;;5.65;4.35;;;24.40;6.70;;;;;;4977348;28;20189;-87
2023/06/16 15:26:00;;;;;;;7.45;4.13;;;24.20;7.30;;;;;;4974999;28;20680;-86
2023/06/16 15:28:27;;;;;;;6.50;4.13;;;23.90;7.30;;;;;;4950285;28;20576;-87
2023/06/16 15:31:19;;;;;;;7.93;4.05;;;23.70;8.00;;;;;;4969239;28;20204;-86
2023/06/16 15:37:47;;;;;;;7.28;4.45;;;23.70;8.30;;;;;;4995966;28;20219;-85
2023/06/16 15:41:10;;;;;;;8.38;4.50;;;23.70;8.60;;;;;;4960218;28;20247;-83
2023/06/16 15:43:37;;;;;;;5.03;4.07;;;23.60;7.60;;;;;;4959576;28;20284;-83
2023/06/16 15:46:04;;;;;;;6.75;4.00;;;23.50;8.20;;;;;;4977370;28;20675;-85
2023/06/16 15:52:22;;;;;;;6.80;4.18;;;23.50;9.20;;;;;;4977643;28;20269;-87
2023/06/16 16:15:47;;;;;;;5.55;3.97;;;23.70;8.60;;;;;;4971722;28;20236;-87
2023/06/16 16:18:14;;;;;;;4.40;4.00;;;23.80;8.90;;;;;;4952790;28;20592;-90
2023/06/16 16:24:22;;;;;;;7.60;4.47;;;23.50;8.80;;;;;;4958788;29;20165;-89
2023/06/16 16:26:49;;;;;;;7.07;4.35;;;23.40;9.00;;;;;;4954708;28;20251;-86
2023/06/16 16:29:20;;;;;;;6.22;4.40;;;23.40;9.00;;;;;;4944855;29;20681;-86
2023/06/16 16:31:51;;;;;;;6.28;4.40;;;23.30;9.00;;;;;;4932152;29;20669;-84
2023/06/16 16:34:18;;;;;;;7.00;4.32;;;23.20;9.20;;;;;;4938474;29;20253;-86
2023/06/16 16:36:45;;;;;;;5.63;4.15;;;23.10;9.40;;;;;;4944535;28;20204;-86
2023/06/16 16:39:12;;;;;;;7.57;4.32;;;23.10;9.30;;;;;;4944854;29;20646;-87
2023/06/16 16:41:39;;;;;;;4.90;4.05;;;22.90;8.70;;;;;;4947965;28;20205;-86
2023/06/16 16:44:06;;;;;;;4.90;4.05;;;22.90;8.80;;;;;;4956976;28;20693;-87
2023/06/16 16:46:33;;;;;;;9.30;4.30;;;23.00;9.30;;;;;;4908140;29;20241;-86
2023/06/16 16:49:13;;;;;;;6.57;4.10;;;23.00;10.40;;;;;;4952158;28;20233;-87
2023/06/16 16:51:40;;;;;;;4.35;3.95;;;23.00;9.60;;;;;;4960494;28;20215;-89
2023/06/16 16:54:09;;;;;;;6.22;4.05;;;22.80;10.20;;;;;;4946806;29;20202;-84
2023/06/16 16:56:59;;;;;;;6.25;4.05;;;22.90;11.00;;;;;;4963551;28;20205;-87
2023/06/16 16:59:27;;;;;;;4.22;3.83;;;22.70;11.70;;;;;;4958718;29;20213;-87
2023/06/16 17:01:54;;;;;;;5.35;4.00;;;22.60;12.60;;;;;;4944476;29;20201;-89
2023/06/16 17:04:23;;;;;;;7.97;4.38;;;22.40;12.50;;;;;;4915634;29;20576;-84
2023/06/16 17:06:50;;;;;;;6.05;4.07;;;22.30;13.30;;;;;;4956283;28;20207;-88
2023/06/16 17:09:17;;;;;;;8.07;4.15;;;22.10;12.30;;;;;;4952197;28;20218;-87
2023/06/16 17:11:44;;;;;;;8.13;4.05;;;22.10;12.30;;;;;;4946206;29;20209;-89
2023/06/16 17:14:11;;;;;;;6.85;4.05;;;22.00;12.20;;;;;;4947965;28;20208;-88
2023/06/16 17:16:38;;;;;;;5.68;4.20;;;22.00;12.20;;;;;;4941573;29;20224;-86
2023/06/16 17:19:05;;;;;;;6.45;4.00;;;21.90;12.20;;;;;;4925671;29;20240;-89
2023/06/16 17:21:33;;;;;;;7.05;4.30;;;22.00;13.10;;;;;;4948076;28;20216;-88
2023/06/16 17:24:00;;;;;;;6.10;4.05;;;22.00;12.20;;;;;;4931847;29;20273;-89
2023/06/16 17:26:27;;;;;;;7.25;4.47;;;22.00;12.20;;;;;;4956119;28;20204;-85
2023/06/16 17:28:54;;;;;;;5.00;4.03;;;21.80;12.20;;;;;;4950767;28;20225;-86
2023/06/16 17:31:21;;;;;;;10.05;4.05;;;21.70;12.10;;;;;;4940345;28;20206;-88
2023/06/16 17:36:29;;;;;;;7.05;4.00;;;21.50;13.40;;;;;;4944501;28;20607;-88
2023/06/16 17:41:39;;;;;;;6.68;4.15;;;21.50;14.80;;;;;;4923161;28;20654;-90
2023/06/16 17:44:06;;;;;;;10.23;3.65;;;21.50;15.40;;;;;;4938904;28;20202;-91
2023/06/16 17:46:35;;;;;;;9.43;4.18;;;21.60;15.60;;;;;;4953334;28;20252;-86
2023/06/16 17:49:04;;;;;;;6.18;3.65;;;21.60;15.90;;;;;;4956066;28;20225;-82
2023/06/16 17:51:31;;;;;;;6.80;3.63;;;21.60;16.40;;;;;;4959318;28;20279;-89
2023/06/16 17:53:59;;;;;;;6.03;3.95;;;21.60;16.40;;;;;;4969179;28;20208;-93
2023/06/16 17:56:31;;;;;;;7.40;3.85;;;21.60;16.90;;;;;;4965341;28;20244;-86
2023/06/16 18:02:26;;;;;;;11.75;4.68;;;21.60;17.90;;;;;;4963650;28;20627;-87
2023/06/16 18:08:41;;;;;;;11.45;3.90;;;21.20;18.70;;;;;;4965168;29;20326;-84
2023/06/16 18:11:49;;;;;;;4.75;4.05;;;21.00;20.00;;;;;;4948521;29;20252;-90
2023/06/16 18:14:16;;;;;;;4.28;3.70;;;20.80;20.00;;;;;;4926912;29;20206;-88
2023/06/16 18:16:52;;;;;;;7.43;3.50;;;20.70;20.80;;;;;;4923402;29;20202;-86
2023/06/16 18:19:19;;;;;;;5.30;3.78;;;20.50;20.70;;;;;;5189772;23;20590;-87
2023/06/16 18:21:46;;;;;;;7.82;4.00;;;20.50;20.90;;;;;;4953765;28;20234;-86
2023/06/16 18:24:13;;;;;;;12.00;3.90;;;20.30;21.60;;;;;;4961865;28;20193;-89
2023/06/16 18:26:41;;;;;;;7.93;3.83;;;20.20;22.10;;;;;;4946610;28;20206;-88
2023/06/16 19:30:43;;;;;;;9.90;4.05;;;18.70;27.90;;;;;;4940691;29;20617;-87
2023/06/16 19:40:11;;;;;;;5.50;4.50;;;18.60;30.90;;;;;;4940787;29;20178;-88
2023/06/16 19:57:03;;;;;;;7.93;4.72;;;18.20;34.90;;;;;;4940970;29;20174;-88
